WXM80 ListenWXM80 Stop

You find our weather info also at:

UK Metoffice

WeatherCloud

Weather Underground

Northeastern Weather Network

AWEKAS

Citizen Weather Observer Program (CWOP)

HAMweather, WeatherForYou, PWS Weather


Weather Underground History page Text

Daily Summary for January 30, 2016 Units:  English    Metric   Both
« Previous Day
Next Day »
Daily Weekly Monthly Yearly Custom
  High: Low: Average:
Temperature: 42.4 °F 28.7 °F 34.5 °F
Dew Point: 31.2 °F 20.0 °F 24.8 °F
Humidity: 81 % 50 % 68 %
Wind Speed: 10.0 mph 0.3 mph 4 mph
Wind Gust: 17.3 mph - -
Wind:- - WSW
Pressure: 30.07 in 29.81 in -
Precipitation: 0.00 in    
Historical Graphs
 
 
Tabular Data for January 30, 2016
Time Temperature Dew Point Pressure Wind Wind Speed Wind Gust Humidity Rainfall Rate (Hourly)
00:03 31.3 °F 21.6 °F 29.81 in NNW 7.4 mph 17.3 mph 67 % 0.00 in
00:08 31.3 °F 21.6 °F 29.81 in NW 5.4 mph 11.5 mph 67 % 0.00 in
00:13 31.2 °F 21.5 °F 29.81 in NNW 3.0 mph 5.8 mph 67 % 0.00 in
00:18 31.2 °F 21.5 °F 29.81 in NNE 4.6 mph 6.9 mph 67 % 0.00 in
00:23 31.1 °F 21.8 °F 29.81 in NW 7.2 mph 11.5 mph 68 % 0.00 in
00:28 31.0 °F 21.3 °F 29.82 in West 4.7 mph 9.0 mph 67 % 0.00 in
00:33 30.9 °F 21.2 °F 29.81 in WNW 3.5 mph 8.0 mph 67 % 0.00 in
00:43 30.7 °F 20.7 °F 29.82 in NW 8.4 mph 12.7 mph 66 % 0.00 in
00:49 30.6 °F 20.6 °F 29.82 in NW 10.0 mph 15.0 mph 66 % 0.00 in
00:54 30.6 °F 20.9 °F 29.82 in WNW 7.1 mph 16.1 mph 67 % 0.00 in
00:59 30.5 °F 20.8 °F 29.83 in WNW 9.4 mph 12.7 mph 67 % 0.00 in
01:04 30.5 °F 20.8 °F 29.83 in WNW 9.6 mph 13.8 mph 67 % 0.00 in
01:09 30.4 °F 20.7 °F 29.84 in WNW 6.5 mph 12.7 mph 67 % 0.00 in
01:14 30.3 °F 20.6 °F 29.84 in WNW 9.0 mph 12.0 mph 67 % 0.00 in
01:19 30.2 °F 20.2 °F 29.84 in NW 8.0 mph 11.5 mph 66 % 0.00 in
01:24 30.1 °F 20.5 °F 29.85 in WNW 4.6 mph 11.5 mph 67 % 0.00 in
01:29 30.0 °F 20.0 °F 29.85 in NNW 6.7 mph 11.5 mph 66 % 0.00 in
01:34 29.9 °F 20.3 °F 29.86 in NW 7.6 mph 9.2 mph 67 % 0.00 in
01:40 29.9 °F 20.3 °F 29.86 in NNW 8.2 mph 9.0 mph 67 % 0.00 in
01:45 29.8 °F 20.2 °F 29.87 in NW 6.8 mph 11.5 mph 67 % 0.00 in
01:50 29.8 °F 20.2 °F 29.87 in NW 6.5 mph 13.8 mph 67 % 0.00 in
01:55 29.8 °F 20.2 °F 29.87 in NW 8.1 mph 16.1 mph 67 % 0.00 in
02:00 29.8 °F 20.2 °F 29.87 in West 8.7 mph 17.3 mph 67 % 0.00 in
02:05 29.8 °F 20.5 °F 29.87 in WNW 5.4 mph 9.0 mph 68 % 0.00 in
02:10 29.7 °F 20.4 °F 29.87 in NW 6.6 mph 11.0 mph 68 % 0.00 in
02:15 29.7 °F 20.4 °F 29.88 in WNW 4.3 mph 8.1 mph 68 % 0.00 in
02:20 29.6 °F 20.3 °F 29.88 in WNW 3.1 mph 13.8 mph 68 % 0.00 in
02:25 29.5 °F 20.2 °F 29.89 in WNW 6.2 mph 9.2 mph 68 % 0.00 in
02:31 29.4 °F 20.5 °F 29.89 in WNW 5.8 mph 13.8 mph 69 % 0.00 in
02:36 29.4 °F 20.1 °F 29.89 in West 4.8 mph 12.7 mph 68 % 0.00 in
02:41 29.3 °F 20.4 °F 29.89 in WNW 1.9 mph 5.8 mph 69 % 0.00 in
02:46 29.2 °F 20.3 °F 29.89 in West 4.9 mph 9.2 mph 69 % 0.00 in
02:51 29.2 °F 20.3 °F 29.91 in West 3.0 mph 8.1 mph 69 % 0.00 in
02:56 29.2 °F 20.6 °F 29.91 in West 1.4 mph 5.8 mph 70 % 0.00 in
03:01 29.1 °F 20.5 °F 29.92 in West 4.0 mph 6.9 mph 70 % 0.00 in
03:06 29.0 °F 20.1 °F 29.92 in NW 5.1 mph 6.9 mph 69 % 0.00 in
03:11 29.0 °F 20.1 °F 29.92 in WNW 2.3 mph 6.9 mph 69 % 0.00 in
03:16 28.9 °F 20.3 °F 29.92 in WNW 4.1 mph 9.2 mph 70 % 0.00 in
03:22 28.9 °F 20.3 °F 29.92 in WNW 4.0 mph 8.1 mph 70 % 0.00 in
03:27 28.9 °F 20.7 °F 29.92 in WNW 6.7 mph 11.5 mph 71 % 0.00 in
03:32 28.9 °F 20.7 °F 29.92 in WNW 3.8 mph 5.8 mph 71 % 0.00 in
03:37 28.9 °F 20.7 °F 29.92 in WNW 4.7 mph 8.1 mph 71 % 0.00 in
03:42 28.9 °F 20.3 °F 29.92 in WNW 7.5 mph 11.5 mph 70 % 0.00 in
03:47 28.9 °F 20.7 °F 29.93 in NW 4.2 mph 5.8 mph 71 % 0.00 in
03:52 28.9 °F 21.0 °F 29.93 in WNW 4.7 mph 10.4 mph 72 % 0.00 in
03:57 28.9 °F 21.0 °F 29.93 in West 5.4 mph 10.0 mph 72 % 0.00 in
04:02 28.9 °F 21.3 °F 29.94 in WSW 5.2 mph 11.5 mph 73 % 0.00 in
04:07 29.0 °F 21.4 °F 29.94 in West 7.3 mph 10.4 mph 73 % 0.00 in
04:13 29.0 °F 21.4 °F 29.94 in WNW 7.9 mph 12.0 mph 73 % 0.00 in
04:18 29.0 °F 21.4 °F 29.95 in WNW 7.0 mph 10.4 mph 73 % 0.00 in
04:23 29.0 °F 21.1 °F 29.95 in WSW 3.4 mph 5.8 mph 72 % 0.00 in
04:28 28.9 °F 21.3 °F 29.96 in WSW 2.7 mph 5.8 mph 73 % 0.00 in
04:33 28.9 °F 21.3 °F 29.96 in West 2.1 mph 10.4 mph 73 % 0.00 in
04:38 28.9 °F 21.3 °F 29.96 in SW 3.4 mph 5.8 mph 73 % 0.00 in
04:43 28.8 °F 21.2 °F 29.97 in West 1.8 mph 3.5 mph 73 % 0.00 in
04:48 28.8 °F 21.2 °F 29.97 in West 3.5 mph 4.0 mph 73 % 0.00 in
04:53 28.8 °F 21.2 °F 29.97 in WNW 2.2 mph 6.9 mph 73 % 0.00 in
04:58 28.8 °F 21.6 °F 29.97 in West 1.1 mph 5.8 mph 74 % 0.00 in
05:04 28.8 °F 21.2 °F 29.98 in NW 3.9 mph 8.1 mph 73 % 0.00 in
05:09 28.8 °F 21.2 °F 29.98 in West 4.0 mph 8.1 mph 73 % 0.00 in
05:14 28.8 °F 21.2 °F 29.97 in WNW 4.1 mph 10.4 mph 73 % 0.00 in
05:19 28.8 °F 21.2 °F 29.97 in NW 3.2 mph 4.6 mph 73 % 0.00 in
05:24 28.8 °F 21.2 °F 29.98 in NW 2.7 mph 4.6 mph 73 % 0.00 in
05:29 28.7 °F 21.5 °F 29.98 in WNW 5.7 mph 9.2 mph 74 % 0.00 in
05:34 28.8 °F 21.6 °F 29.98 in NW 7.1 mph 10.4 mph 74 % 0.00 in
05:39 28.8 °F 21.6 °F 29.98 in West 4.2 mph 6.9 mph 74 % 0.00 in
05:44 28.8 °F 21.6 °F 29.99 in WNW 0.6 mph 4.6 mph 74 % 0.00 in
05:49 28.8 °F 21.6 °F 30.00 in NNW 0.8 mph 8.1 mph 74 % 0.00 in
06:00 28.7 °F 21.8 °F 30.00 in WSW 2.8 mph 8.1 mph 75 % 0.00 in
06:05 28.7 °F 21.8 °F 30.02 in NW 3.4 mph 5.0 mph 75 % 0.00 in
06:10 28.7 °F 21.8 °F 30.02 in WNW 4.1 mph 8.1 mph 75 % 0.00 in
06:15 28.7 °F 21.8 °F 30.02 in WNW 4.3 mph 6.9 mph 75 % 0.00 in
06:20 28.7 °F 21.8 °F 30.02 in WNW 4.5 mph 11.5 mph 75 % 0.00 in
06:25 28.8 °F 21.9 °F 30.03 in SW 2.2 mph 3.5 mph 75 % 0.00 in
06:35 28.8 °F 21.9 °F 30.04 in WNW 4.4 mph 6.9 mph 75 % 0.00 in
06:40 28.8 °F 21.9 °F 30.05 in NW 5.6 mph 10.4 mph 75 % 0.00 in
06:46 28.9 °F 22.0 °F 30.05 in West 6.1 mph 15.0 mph 75 % 0.00 in
06:51 28.9 °F 22.0 °F 30.05 in WNW 7.6 mph 16.1 mph 75 % 0.00 in
06:56 29.0 °F 22.1 °F 30.05 in West 2.8 mph 9.2 mph 75 % 0.00 in
07:01 29.0 °F 22.1 °F 30.04 in WNW 4.9 mph 8.1 mph 75 % 0.00 in
07:11 29.0 °F 22.4 °F 30.03 in NW 5.5 mph 9.0 mph 76 % 0.00 in
07:21 29.0 °F 22.1 °F 30.03 in WNW 4.8 mph 8.1 mph 75 % 0.00 in
07:26 29.0 °F 22.4 °F 30.04 in WNW 5.1 mph 6.9 mph 76 % 0.00 in
07:31 29.0 °F 22.4 °F 30.04 in WNW 1.5 mph 11.5 mph 76 % 0.00 in
07:42 29.2 °F 22.6 °F 30.05 in West 3.7 mph 6.9 mph 76 % 0.00 in
07:47 29.2 °F 22.3 °F 30.05 in NW 4.5 mph 8.1 mph 75 % 0.00 in
07:52 29.2 °F 22.6 °F 30.05 in WNW 3.5 mph 6.0 mph 76 % 0.00 in
07:57 29.3 °F 22.7 °F 30.04 in West 5.4 mph 8.1 mph 76 % 0.00 in
08:02 29.4 °F 22.5 °F 30.05 in West 3.4 mph 5.8 mph 75 % 0.00 in
08:07 29.6 °F 22.6 °F 30.05 in WNW 3.9 mph 5.8 mph 75 % 0.00 in
08:12 29.7 °F 22.7 °F 30.06 in WNW 6.3 mph 10.4 mph 75 % 0.00 in
08:17 29.9 °F 22.6 °F 30.06 in NW 4.2 mph 8.0 mph 74 % 0.00 in
08:22 30.2 °F 22.9 °F 30.06 in WNW 5.2 mph 10.4 mph 74 % 0.00 in
08:28 30.4 °F 23.1 °F 30.06 in WNW 5.2 mph 9.2 mph 74 % 0.00 in
08:38 30.8 °F 23.2 °F 30.06 in NW 4.8 mph 6.9 mph 73 % 0.00 in
08:43 30.9 °F 22.9 °F 30.06 in WSW 4.3 mph 10.4 mph 72 % 0.00 in
08:53 31.3 °F 23.3 °F 30.05 in WNW 3.5 mph 5.0 mph 72 % 0.00 in
08:58 31.7 °F 23.4 °F 30.05 in WNW 3.3 mph 7.0 mph 71 % 0.00 in
09:03 32.1 °F 23.8 °F 30.05 in NW 4.2 mph 8.1 mph 71 % 0.00 in
09:08 32.4 °F 24.0 °F 30.05 in West 4.4 mph 6.9 mph 71 % 0.00 in
09:14 32.7 °F 24.0 °F 30.05 in WNW 5.2 mph 6.9 mph 70 % 0.00 in
09:19 32.9 °F 23.8 °F 30.05 in NW 5.3 mph 8.1 mph 69 % 0.00 in
09:24 33.2 °F 24.1 °F 30.05 in NNW 1.0 mph 3.5 mph 69 % 0.00 in
09:29 33.5 °F 24.1 °F 30.04 in SW 2.3 mph 6.9 mph 68 % 0.00 in
09:34 33.8 °F 24.0 °F 30.04 in NNW 0.6 mph 4.0 mph 67 % 0.00 in
09:39 34.1 °F 23.9 °F 30.05 in WNW 5.0 mph 6.9 mph 66 % 0.00 in
09:44 34.2 °F 24.0 °F 30.05 in WNW 3.0 mph 7.0 mph 66 % 0.00 in
09:49 34.4 °F 23.8 °F 30.06 in West 4.2 mph 5.8 mph 65 % 0.00 in
09:54 34.6 °F 24.0 °F 30.07 in NW 1.3 mph 3.5 mph 65 % 0.00 in
09:59 34.9 °F 24.3 °F 30.07 in NNW 1.0 mph 3.5 mph 65 % 0.00 in
10:05 35.2 °F 24.6 °F 30.06 in WNW 2.5 mph 7.0 mph 65 % 0.00 in
10:10 35.5 °F 24.5 °F 30.06 in West 3.5 mph 6.0 mph 64 % 0.00 in
10:15 35.7 °F 24.3 °F 30.06 in SW 3.4 mph 4.6 mph 63 % 0.00 in
10:20 35.9 °F 24.5 °F 30.06 in WNW 5.6 mph 7.0 mph 63 % 0.00 in
10:25 36.5 °F 24.7 °F 30.05 in WSW 3.4 mph 5.8 mph 62 % 0.00 in
10:30 36.9 °F 25.1 °F 30.05 in SSW 4.5 mph 6.9 mph 62 % 0.00 in
10:35 37.0 °F 24.8 °F 30.05 in WSW 3.1 mph 4.6 mph 61 % 0.00 in
10:40 37.0 °F 25.2 °F 30.05 in SW 3.6 mph 5.8 mph 62 % 0.00 in
10:50 36.6 °F 24.4 °F 30.05 in West 3.1 mph 5.8 mph 61 % 0.00 in
10:56 36.5 °F 24.7 °F 30.06 in WNW 3.3 mph 5.8 mph 62 % 0.00 in
11:01 36.4 °F 24.2 °F 30.07 in WNW 4.5 mph 10.4 mph 61 % 0.00 in
11:06 36.4 °F 24.2 °F 30.07 in SW 3.0 mph 8.1 mph 61 % 0.00 in
11:11 36.7 °F 24.5 °F 30.06 in SW 3.4 mph 5.8 mph 61 % 0.00 in
11:16 36.8 °F 24.2 °F 30.05 in WSW 4.2 mph 8.1 mph 60 % 0.00 in
11:21 36.6 °F 23.6 °F 30.05 in SW 6.0 mph 9.2 mph 59 % 0.00 in
11:26 36.5 °F 23.5 °F 30.05 in SSW 1.8 mph 3.5 mph 59 % 0.00 in
11:31 36.7 °F 24.1 °F 30.05 in SW 1.9 mph 3.5 mph 60 % 0.00 in
11:36 37.1 °F 24.5 °F 30.04 in WSW 1.9 mph 4.0 mph 60 % 0.00 in
11:41 37.3 °F 23.9 °F 30.04 in West 3.3 mph 4.0 mph 58 % 0.00 in
11:47 37.3 °F 23.9 °F 30.04 in NW 1.2 mph 4.6 mph 58 % 0.00 in
11:52 37.2 °F 23.8 °F 30.04 in WNW 3.1 mph 4.0 mph 58 % 0.00 in
11:57 37.0 °F 24.0 °F 30.04 in WNW 1.9 mph 5.8 mph 59 % 0.00 in
12:02 36.9 °F 23.9 °F 30.03 in SW 2.9 mph 5.8 mph 59 % 0.00 in
12:07 36.8 °F 23.8 °F 30.03 in West 2.2 mph 3.5 mph 59 % 0.00 in
12:12 36.9 °F 23.9 °F 30.02 in West 4.6 mph 6.9 mph 59 % 0.00 in
12:17 37.0 °F 24.0 °F 30.02 in West 2.1 mph 3.5 mph 59 % 0.00 in
12:22 37.2 °F 24.2 °F 30.01 in WNW 1.1 mph 3.5 mph 59 % 0.00 in
12:27 37.6 °F 24.6 °F 30.01 in WNW 1.6 mph 5.0 mph 59 % 0.00 in
12:32 37.9 °F 24.8 °F 30.01 in West 3.3 mph 4.0 mph 59 % 0.00 in
12:38 38.1 °F 24.6 °F 30.01 in SW 4.1 mph 5.8 mph 58 % 0.00 in
12:43 38.4 °F 24.9 °F 30.01 in West 5.1 mph 5.8 mph 58 % 0.00 in
12:48 38.8 °F 24.9 °F 30.01 in WSW 3.9 mph 6.0 mph 57 % 0.00 in
12:53 39.0 °F 25.0 °F 30.01 in WSW 2.6 mph 7.0 mph 57 % 0.00 in
13:03 39.7 °F 25.3 °F 30.01 in SSW 2.7 mph 6.9 mph 56 % 0.00 in
13:08 40.2 °F 24.9 °F 30.01 in SSW 4.2 mph 8.1 mph 54 % 0.00 in
13:13 40.7 °F 24.9 °F 30.01 in West 5.7 mph 9.2 mph 53 % 0.00 in
13:18 41.1 °F 24.8 °F 30.01 in WSW 5.3 mph 6.9 mph 52 % 0.00 in
13:23 41.5 °F 24.7 °F 30.01 in SSW 3.8 mph 8.0 mph 51 % 0.00 in
13:29 41.9 °F 24.6 °F 30.01 in SSW 5.8 mph 11.5 mph 50 % 0.00 in
13:34 42.2 °F 24.9 °F 30.00 in SW 5.9 mph 12.0 mph 50 % 0.00 in
13:39 42.4 °F 25.1 °F 30.00 in SSW 4.0 mph 10.4 mph 50 % 0.00 in
13:44 42.4 °F 25.1 °F 30.00 in SW 3.1 mph 9.0 mph 50 % 0.00 in
13:49 42.4 °F 25.1 °F 30.00 in SW 3.0 mph 8.1 mph 50 % 0.00 in
13:59 42.4 °F 25.5 °F 30.00 in South 5.4 mph 10.0 mph 51 % 0.00 in
14:04 42.3 °F 25.9 °F 30.00 in South 5.7 mph 6.9 mph 52 % 0.00 in
14:09 42.3 °F 25.9 °F 30.00 in SSW 3.7 mph 4.6 mph 52 % 0.00 in
14:14 42.2 °F 25.8 °F 30.00 in SSW 5.0 mph 7.0 mph 52 % 0.00 in
14:20 42.1 °F 26.2 °F 30.00 in SW 5.9 mph 8.1 mph 53 % 0.00 in
14:25 41.8 °F 25.9 °F 30.00 in SW 3.6 mph 8.1 mph 53 % 0.00 in
14:30 41.6 °F 26.2 °F 30.00 in South 4.3 mph 9.2 mph 54 % 0.00 in
14:35 41.4 °F 26.0 °F 30.00 in SW 3.7 mph 12.7 mph 54 % 0.00 in
14:40 41.2 °F 25.8 °F 30.00 in SSW 4.0 mph 8.0 mph 54 % 0.00 in
14:45 40.7 °F 24.9 °F 30.00 in South 5.1 mph 9.2 mph 53 % 0.00 in
14:50 40.1 °F 24.3 °F 30.00 in SE 4.7 mph 5.8 mph 53 % 0.00 in
14:55 39.9 °F 24.6 °F 30.00 in SSW 4.1 mph 9.2 mph 54 % 0.00 in
15:00 39.8 °F 24.9 °F 30.00 in SSW 2.6 mph 7.0 mph 55 % 0.00 in
15:05 39.8 °F 25.4 °F 30.00 in South 2.6 mph 6.9 mph 56 % 0.00 in
15:11 39.6 °F 25.6 °F 30.00 in South 4.0 mph 5.8 mph 57 % 0.00 in
15:16 39.5 °F 25.9 °F 30.00 in SSW 5.0 mph 6.9 mph 58 % 0.00 in
15:21 39.2 °F 25.6 °F 30.00 in WSW 4.7 mph 10.4 mph 58 % 0.00 in
15:26 39.1 °F 25.6 °F 30.00 in South 5.1 mph 9.2 mph 58 % 0.00 in
15:31 39.0 °F 25.9 °F 30.00 in South 3.3 mph 6.9 mph 59 % 0.00 in
15:36 38.9 °F 26.2 °F 30.00 in SW 2.2 mph 4.6 mph 60 % 0.00 in
15:41 38.7 °F 26.0 °F 29.99 in SSW 3.7 mph 8.1 mph 60 % 0.00 in
15:46 38.4 °F 26.1 °F 30.00 in South 6.7 mph 9.2 mph 61 % 0.00 in
15:51 38.2 °F 26.3 °F 30.00 in SSW 5.9 mph 6.9 mph 62 % 0.00 in
15:56 38.1 °F 26.2 °F 29.99 in SSW 2.8 mph 5.0 mph 62 % 0.00 in
16:02 38.0 °F 26.1 °F 29.99 in SSW 6.3 mph 8.1 mph 62 % 0.00 in
16:07 37.9 °F 26.4 °F 29.99 in SW 1.8 mph 3.5 mph 63 % 0.00 in
16:12 37.8 °F 26.3 °F 30.00 in South 0.3 mph 4.6 mph 63 % 0.00 in
16:17 37.7 °F 26.2 °F 30.00 in SSW 3.2 mph 5.8 mph 63 % 0.00 in
16:22 37.6 °F 26.5 °F 30.00 in SW 0.4 mph 3.5 mph 64 % 0.00 in
16:27 37.5 °F 26.4 °F 30.00 in SSW 2.5 mph 6.9 mph 64 % 0.00 in
16:32 37.4 °F 26.3 °F 29.99 in South 3.3 mph 5.0 mph 64 % 0.00 in
16:37 37.3 °F 26.6 °F 29.99 in SSW 2.0 mph 3.5 mph 65 % 0.00 in
16:42 37.3 °F 26.6 °F 29.99 in SSW 2.9 mph 5.0 mph 65 % 0.00 in
16:47 37.1 °F 26.4 °F 29.98 in South 2.9 mph 6.0 mph 65 % 0.00 in
16:53 37.0 °F 26.7 °F 29.98 in SSW 2.8 mph 5.8 mph 66 % 0.00 in
16:58 36.9 °F 27.0 °F 29.98 in South 6.3 mph 9.2 mph 67 % 0.00 in
17:03 36.8 °F 27.2 °F 29.98 in South 2.9 mph 5.0 mph 68 % 0.00 in
17:08 36.7 °F 27.1 °F 29.98 in South 3.5 mph 8.1 mph 68 % 0.00 in
17:13 36.6 °F 27.4 °F 29.98 in SSW 4.3 mph 6.0 mph 69 % 0.00 in
17:18 36.4 °F 27.2 °F 29.98 in SSW 5.2 mph 9.0 mph 69 % 0.00 in
17:23 36.4 °F 27.2 °F 29.98 in SSW 3.0 mph 5.0 mph 69 % 0.00 in
17:28 36.3 °F 27.4 °F 29.98 in South 1.5 mph 3.5 mph 70 % 0.00 in
17:33 36.2 °F 27.4 °F 29.99 in South 2.3 mph 4.6 mph 70 % 0.00 in
17:38 36.1 °F 27.6 °F 29.99 in SSW 2.1 mph 6.0 mph 71 % 0.00 in
17:44 36.1 °F 27.6 °F 29.99 in WSW 1.4 mph 4.0 mph 71 % 0.00 in
17:49 36.0 °F 27.8 °F 29.98 in South 3.2 mph 6.0 mph 72 % 0.00 in
17:54 35.9 °F 27.7 °F 29.99 in SSW 4.8 mph 6.9 mph 72 % 0.00 in
17:59 35.8 °F 27.7 °F 29.99 in SSW 2.1 mph 3.5 mph 72 % 0.00 in
18:04 35.8 °F 27.7 °F 29.99 in South 3.9 mph 6.0 mph 72 % 0.00 in
18:09 35.8 °F 28.0 °F 29.99 in SSW 3.7 mph 5.8 mph 73 % 0.00 in
18:19 35.7 °F 27.9 °F 30.00 in SW 2.6 mph 5.0 mph 73 % 0.00 in
18:24 35.6 °F 27.8 °F 29.99 in SSW 0.8 mph 3.5 mph 73 % 0.00 in
18:40 35.5 °F 28.0 °F 30.00 in SW 1.9 mph 4.6 mph 74 % 0.00 in
18:45 35.5 °F 28.4 °F 30.00 in SSW 2.3 mph 4.6 mph 75 % 0.00 in
18:50 35.5 °F 28.4 °F 30.00 in South 1.9 mph 4.6 mph 75 % 0.00 in
18:55 35.5 °F 28.4 °F 30.00 in SW 2.8 mph 4.6 mph 75 % 0.00 in
19:00 35.5 °F 28.7 °F 30.00 in SSW 1.6 mph 4.6 mph 76 % 0.00 in
19:05 35.6 °F 28.8 °F 29.99 in SSW 1.4 mph 3.5 mph 76 % 0.00 in
19:15 35.6 °F 29.1 °F 29.99 in SSW 1.4 mph 4.6 mph 77 % 0.00 in
19:20 35.7 °F 29.2 °F 30.00 in SSW 2.1 mph 3.5 mph 77 % 0.00 in
19:26 35.8 °F 29.6 °F 30.00 in SW 2.9 mph 8.1 mph 78 % 0.00 in
19:31 35.8 °F 29.6 °F 30.00 in SW 1.8 mph 4.0 mph 78 % 0.00 in
19:41 35.9 °F 30.3 °F 30.00 in SSW 3.9 mph 5.8 mph 80 % 0.00 in
19:46 36.1 °F 30.8 °F 29.99 in SSW 2.2 mph 4.0 mph 81 % 0.00 in
19:51 36.2 °F 30.9 °F 30.00 in WSW 3.2 mph 4.6 mph 81 % 0.00 in
19:56 36.3 °F 31.0 °F 30.00 in SSW 3.1 mph 9.2 mph 81 % 0.00 in
20:01 36.4 °F 31.1 °F 30.00 in SSW 3.8 mph 8.1 mph 81 % 0.00 in
20:06 36.5 °F 31.2 °F 30.00 in WSW 2.9 mph 4.6 mph 81 % 0.00 in
20:11 36.5 °F 30.9 °F 30.01 in SSW 2.8 mph 4.6 mph 80 % 0.00 in
20:17 36.6 °F 31.0 °F 30.01 in SW 4.3 mph 6.9 mph 80 % 0.00 in
20:22 36.7 °F 31.1 °F 30.00 in SSW 1.7 mph 5.0 mph 80 % 0.00 in
20:27 36.8 °F 31.2 °F 30.00 in SW 1.6 mph 5.8 mph 80 % 0.00 in
20:37 36.9 °F 31.0 °F 30.00 in SSW 2.7 mph 7.0 mph 79 % 0.00 in
20:47 37.0 °F 30.8 °F 29.98 in South 3.1 mph 5.0 mph 78 % 0.00 in
20:52 37.0 °F 30.5 °F 29.98 in SSW 2.5 mph 5.0 mph 77 % 0.00 in
20:57 37.0 °F 30.5 °F 29.98 in SSW 2.3 mph 5.0 mph 77 % 0.00 in
21:02 37.0 °F 30.1 °F 29.99 in SW 4.4 mph 8.0 mph 76 % 0.00 in
21:08 37.1 °F 29.9 °F 29.98 in SSW 0.9 mph 5.8 mph 75 % 0.00 in
21:13 37.2 °F 29.7 °F 29.98 in SW 0.6 mph 4.6 mph 74 % 0.00 in
21:18 37.2 °F 29.3 °F 29.98 in SW 2.4 mph 10.4 mph 73 % 0.00 in
21:23 37.3 °F 28.8 °F 29.99 in South 4.8 mph 10.4 mph 71 % 0.00 in
21:28 37.4 °F 28.2 °F 29.99 in SSW 2.4 mph 4.6 mph 69 % 0.00 in
21:33 37.5 °F 27.9 °F 29.99 in WSW 2.5 mph 4.0 mph 68 % 0.00 in
21:38 37.5 °F 27.2 °F 29.99 in SW 4.4 mph 8.0 mph 66 % 0.00 in
21:43 37.7 °F 27.0 °F 29.98 in SSE 2.9 mph 8.1 mph 65 % 0.00 in
21:48 37.8 °F 27.1 °F 29.98 in South 6.2 mph 10.4 mph 65 % 0.00 in
21:54 37.8 °F 26.7 °F 29.99 in SSW 4.4 mph 10.4 mph 64 % 0.00 in
21:59 37.9 °F 27.2 °F 29.99 in SW 7.1 mph 11.5 mph 65 % 0.00 in
22:04 37.9 °F 27.2 °F 29.99 in South 3.3 mph 8.1 mph 65 % 0.00 in
22:09 37.9 °F 27.9 °F 29.99 in SSW 5.3 mph 9.2 mph 67 % 0.00 in
22:14 37.8 °F 28.2 °F 29.99 in South 5.3 mph 6.9 mph 68 % 0.00 in
22:19 37.8 °F 28.2 °F 29.99 in SSW 4.4 mph 10.0 mph 68 % 0.00 in
22:24 37.8 °F 28.9 °F 29.99 in SSW 3.0 mph 3.5 mph 70 % 0.00 in
22:29 37.8 °F 28.9 °F 29.99 in SW 4.2 mph 9.2 mph 70 % 0.00 in
22:34 37.8 °F 29.2 °F 30.00 in WSW 4.7 mph 10.4 mph 71 % 0.00 in
22:39 37.8 °F 29.2 °F 29.99 in SSW 2.1 mph 6.9 mph 71 % 0.00 in
22:45 37.7 °F 29.5 °F 29.99 in SW 2.9 mph 11.5 mph 72 % 0.00 in
22:50 37.7 °F 29.8 °F 29.99 in SSW 4.1 mph 9.2 mph 73 % 0.00 in
22:55 37.7 °F 29.8 °F 29.98 in South 5.6 mph 8.1 mph 73 % 0.00 in
23:00 37.7 °F 29.8 °F 29.98 in South 3.2 mph 4.6 mph 73 % 0.00 in
23:05 37.6 °F 29.7 °F 29.98 in SSW 3.9 mph 6.9 mph 73 % 0.00 in
23:10 37.6 °F 30.1 °F 29.98 in SSW 2.5 mph 4.6 mph 74 % 0.00 in
23:15 37.6 °F 30.1 °F 29.98 in SSW 1.8 mph 9.2 mph 74 % 0.00 in
23:20 37.6 °F 30.1 °F 29.99 in SSW 5.1 mph 6.9 mph 74 % 0.00 in
23:25 37.6 °F 30.1 °F 29.98 in SSW 5.7 mph 9.2 mph 74 % 0.00 in
23:30 37.5 °F 30.3 °F 29.98 in SSW 4.8 mph 9.2 mph 75 % 0.00 in
23:41 37.6 °F 30.1 °F 29.98 in SW 4.1 mph 11.5 mph 74 % 0.00 in
23:46 37.6 °F 30.1 °F 29.98 in WSW 5.2 mph 9.0 mph 74 % 0.00 in
23:51 37.6 °F 30.1 °F 29.98 in South 1.9 mph 4.6 mph 74 % 0.00 in
23:56 37.6 °F 30.1 °F 29.98 in SW 3.8 mph 7.0 mph 74 % 0.00 in
Crab Meadow Weather
Compliments of Weather Underground - 2.75 mb

Script developed by  Jim McMurry - jmcmurry@mwt.net Adapted for the template by  Wim van der Kuil - Leuven-Template.eu

Weather Terms: Advisory - An advisory is issued when a hazardous weather or hydrologic event is occurring, imminent or likely. Advisories are for less serious conditions than warnings, that cause significant inconvenience and if caution is not exercised, could lead to situations that may threaten life or property.